createdAt,value
2018-03-16T00:04:49.006Z,0
2018-03-16T00:15:02.821Z,0
2018-03-16T00:25:17.714Z,0
2018-03-16T00:35:31.929Z,0
2018-03-16T00:45:46.459Z,0
2018-03-16T00:56:01.879Z,0
2018-03-16T01:06:15.887Z,0
2018-03-16T01:16:30.839Z,0
2018-03-16T01:26:46.490Z,0
2018-03-16T01:37:00.677Z,0
2018-03-16T01:47:15.385Z,0
2018-03-16T01:57:30.711Z,0
2018-03-16T02:07:45.254Z,0
2018-03-16T02:17:59.404Z,0
2018-03-16T02:28:13.760Z,0
2018-03-16T02:38:27.856Z,0
2018-03-16T02:48:41.758Z,0
2018-03-16T02:58:57.328Z,0
2018-03-16T03:09:11.840Z,0
2018-03-16T03:19:26.522Z,0
2018-03-16T03:29:42.025Z,0
2018-03-16T03:39:56.310Z,0
2018-03-16T03:50:11.046Z,0
2018-03-16T04:00:26.170Z,0
2018-03-16T04:10:40.184Z,0
2018-03-16T04:20:54.535Z,0
2018-03-16T04:31:10.192Z,0
2018-03-16T04:41:23.891Z,0
2018-03-16T04:51:38.629Z,0
2018-03-16T05:01:53.572Z,0
2018-03-16T05:12:07.320Z,0
2018-03-16T05:22:21.608Z,8
2018-03-16T05:32:36.857Z,28
2018-03-16T05:42:50.982Z,88
2018-03-16T05:53:06.211Z,180
2018-03-16T06:03:20.884Z,324
2018-03-16T06:13:36.045Z,728
2018-03-16T06:23:50.898Z,1132
2018-03-16T06:34:06.067Z,1828
2018-03-16T06:44:21.725Z,1480
2018-03-16T06:54:36.829Z,1608
2018-03-16T07:04:51.783Z,1988
2018-03-16T07:15:07.026Z,2520
2018-03-16T07:25:22.445Z,3132
2018-03-16T07:35:36.842Z,4092
2018-03-16T07:45:52.496Z,3816
2018-03-16T07:56:06.478Z,4260
2018-03-16T08:06:21.890Z,5728
2018-03-16T08:16:35.992Z,3932
2018-03-16T08:26:51.276Z,4964
2018-03-16T08:37:05.409Z,5420
2018-03-16T08:47:20.585Z,5944
2018-03-16T08:57:34.531Z,4596
2018-03-16T09:07:49.178Z,6320
2018-03-16T09:18:04.959Z,6600
2018-03-16T09:28:19.892Z,6180
2018-03-16T09:38:33.744Z,7508
2018-03-16T09:48:47.930Z,9792
2018-03-16T09:59:01.887Z,9360
2018-03-16T10:09:16.894Z,10728
2018-03-16T10:19:32.502Z,12128
2018-03-16T10:29:46.416Z,14068
2018-03-16T10:40:02.010Z,11940
2018-03-16T10:50:15.901Z,15300
2018-03-16T11:00:31.161Z,13300
2018-03-16T11:10:44.987Z,13536
2018-03-16T11:20:59.675Z,14740
2018-03-16T11:31:14.718Z,13068
2018-03-16T11:41:30.116Z,14512
2018-03-16T11:51:45.283Z,14496
2018-03-16T12:02:00.862Z,14552
2018-03-16T12:12:16.303Z,12224
2018-03-16T12:22:31.768Z,13684
2018-03-16T12:32:45.461Z,11840
2018-03-16T12:42:59.170Z,12124
2018-03-16T12:53:13.675Z,15904
2018-03-16T13:03:29.127Z,16144
2018-03-16T13:13:43.931Z,12476
2018-03-16T13:23:57.679Z,14592
2018-03-16T13:34:12.119Z,12044
2018-03-16T13:44:26.505Z,12132
2018-03-16T13:54:40.677Z,9548
2018-03-16T14:04:54.367Z,6788
2018-03-16T14:15:08.379Z,9732
2018-03-16T14:25:22.647Z,8964
2018-03-16T14:35:37.401Z,8444
2018-03-16T14:45:52.918Z,7944
2018-03-16T14:56:06.902Z,8644
2018-03-16T15:06:21.497Z,9696
2018-03-16T15:16:36.256Z,8956
2018-03-16T15:26:50.392Z,8032
2018-03-16T15:37:05.532Z,7360
2018-03-16T15:47:20.852Z,7948
2018-03-16T15:57:35.417Z,8532
2018-03-16T16:07:50.717Z,5512
2018-03-16T16:18:05.273Z,5588
2018-03-16T16:28:20.658Z,5264
2018-03-16T16:38:34.597Z,3992
2018-03-16T16:48:49.255Z,2544
2018-03-16T16:59:03.294Z,1272
2018-03-16T17:09:17.859Z,1048
2018-03-16T17:19:31.576Z,388
2018-03-16T17:29:45.602Z,248
2018-03-16T17:39:59.238Z,88
2018-03-16T17:50:14.717Z,24
2018-03-16T18:00:29.659Z,4
2018-03-16T18:10:44.218Z,0
2018-03-16T18:20:58.291Z,0
2018-03-16T18:31:12.404Z,0
2018-03-16T18:41:27.134Z,0
2018-03-16T18:51:41.831Z,0
2018-03-16T19:01:57.246Z,0
2018-03-16T19:12:12.219Z,0
2018-03-16T19:22:27.746Z,0
2018-03-16T19:32:41.993Z,0
2018-03-16T19:42:56.282Z,0
2018-03-16T19:53:10.755Z,0
2018-03-16T20:03:25.565Z,0
2018-03-16T20:13:39.867Z,0
2018-03-16T20:23:54.236Z,0
2018-03-16T20:34:08.693Z,0
2018-03-16T20:44:23.889Z,0
2018-03-16T20:54:38.299Z,0
2018-03-16T21:04:53.280Z,0
2018-03-16T21:15:07.431Z,0
2018-03-16T21:25:22.898Z,0
2018-03-16T21:35:37.180Z,0
2018-03-16T21:45:51.854Z,0
2018-03-16T21:56:05.989Z,0
2018-03-16T22:06:20.771Z,0
2018-03-16T22:16:36.119Z,0
2018-03-16T22:26:50.330Z,0
2018-03-16T22:37:04.690Z,0
2018-03-16T22:47:19.951Z,0
2018-03-16T22:57:35.338Z,0
2018-03-16T23:07:50.274Z,0
2018-03-16T23:18:04.464Z,0
2018-03-16T23:28:18.512Z,0
2018-03-16T23:38:33.528Z,0
2018-03-16T23:48:48.880Z,0
2018-03-16T23:59:03.527Z,0
